sensor_id;sensor_type;location;lat;lon;timestamp;temperature;humidity
66928;DHT22;59882;45.624;11.698;2022-09-13T00:00:35;21.90;66.50
66928;DHT22;59882;45.624;11.698;2022-09-13T00:03:02;21.90;66.80
66928;DHT22;59882;45.624;11.698;2022-09-13T00:05:28;21.90;67.00
66928;DHT22;59882;45.624;11.698;2022-09-13T00:07:54;21.80;66.80
66928;DHT22;59882;45.624;11.698;2022-09-13T00:10:20;21.80;67.30
66928;DHT22;59882;45.624;11.698;2022-09-13T00:12:47;21.80;67.40
66928;DHT22;59882;45.624;11.698;2022-09-13T00:15:13;21.70;67.30
66928;DHT22;59882;45.624;11.698;2022-09-13T00:17:39;21.70;67.10
66928;DHT22;59882;45.624;11.698;2022-09-13T00:20:05;21.80;67.10
66928;DHT22;59882;45.624;11.698;2022-09-13T00:22:31;21.80;67.40
66928;DHT22;59882;45.624;11.698;2022-09-13T00:24:57;21.80;67.50
66928;DHT22;59882;45.624;11.698;2022-09-13T00:27:22;21.80;67.50
66928;DHT22;59882;45.624;11.698;2022-09-13T00:29:48;21.80;67.20
66928;DHT22;59882;45.624;11.698;2022-09-13T00:32:14;21.70;67.20
66928;DHT22;59882;45.624;11.698;2022-09-13T00:34:39;21.70;67.00
66928;DHT22;59882;45.624;11.698;2022-09-13T00:37:05;21.70;67.10
66928;DHT22;59882;45.624;11.698;2022-09-13T00:39:31;21.70;66.80
66928;DHT22;59882;45.624;11.698;2022-09-13T00:41:57;21.70;66.70
66928;DHT22;59882;45.624;11.698;2022-09-13T00:47:42;21.80;66.10
66928;DHT22;59882;45.624;11.698;2022-09-13T00:52:39;21.80;66.20
66928;DHT22;59882;45.624;11.698;2022-09-13T00:55:12;21.80;66.20
66928;DHT22;59882;45.624;11.698;2022-09-13T00:57:41;21.80;66.10
66928;DHT22;59882;45.624;11.698;2022-09-13T01:00:10;21.70;66.70
66928;DHT22;59882;45.624;11.698;2022-09-13T01:02:46;21.70;66.60
66928;DHT22;59882;45.624;11.698;2022-09-13T01:05:15;21.60;66.30
66928;DHT22;59882;45.624;11.698;2022-09-13T01:07:43;21.60;66.30
66928;DHT22;59882;45.624;11.698;2022-09-13T01:10:09;21.60;66.60
66928;DHT22;59882;45.624;11.698;2022-09-13T01:12:56;21.50;67.30
66928;DHT22;59882;45.624;11.698;2022-09-13T01:15:24;21.50;66.80
66928;DHT22;59882;45.624;11.698;2022-09-13T01:17:51;21.40;67.50
66928;DHT22;59882;45.624;11.698;2022-09-13T01:20:18;21.40;67.30
66928;DHT22;59882;45.624;11.698;2022-09-13T01:23:15;21.30;67.20
66928;DHT22;59882;45.624;11.698;2022-09-13T01:31:16;21.10;67.80
66928;DHT22;59882;45.624;11.698;2022-09-13T01:36:37;21.00;68.00
66928;DHT22;59882;45.624;11.698;2022-09-13T01:39:21;21.00;68.20
66928;DHT22;59882;45.624;11.698;2022-09-13T01:41:58;20.90;68.30
66928;DHT22;59882;45.624;11.698;2022-09-13T01:45:02;20.90;68.40
66928;DHT22;59882;45.624;11.698;2022-09-13T01:47:36;20.90;68.00
66928;DHT22;59882;45.624;11.698;2022-09-13T01:53:00;20.90;68.20
66928;DHT22;59882;45.624;11.698;2022-09-13T02:00:46;20.80;68.50
66928;DHT22;59882;45.624;11.698;2022-09-13T02:03:20;20.80;68.50
66928;DHT22;59882;45.624;11.698;2022-09-13T02:06:02;20.70;69.00
66928;DHT22;59882;45.624;11.698;2022-09-13T02:08:39;20.70;68.90
66928;DHT22;59882;45.624;11.698;2022-09-13T02:11:11;20.70;68.70
66928;DHT22;59882;45.624;11.698;2022-09-13T02:13:45;20.70;68.90
66928;DHT22;59882;45.624;11.698;2022-09-13T02:16:17;20.70;68.70
66928;DHT22;59882;45.624;11.698;2022-09-13T02:18:51;20.70;69.10
66928;DHT22;59882;45.624;11.698;2022-09-13T02:21:23;20.70;69.10
66928;DHT22;59882;45.624;11.698;2022-09-13T02:23:57;20.70;69.00
66928;DHT22;59882;45.624;11.698;2022-09-13T02:26:24;20.70;69.10
66928;DHT22;59882;45.624;11.698;2022-09-13T02:28:54;20.70;69.10
66928;DHT22;59882;45.624;11.698;2022-09-13T02:31:32;20.70;69.10
66928;DHT22;59882;45.624;11.698;2022-09-13T02:34:22;20.70;69.10
66928;DHT22;59882;45.624;11.698;2022-09-13T02:36:51;20.80;69.10
66928;DHT22;59882;45.624;11.698;2022-09-13T02:39:22;20.80;69.30
66928;DHT22;59882;45.624;11.698;2022-09-13T02:42:09;20.80;68.90
66928;DHT22;59882;45.624;11.698;2022-09-13T02:44:39;20.70;69.10
66928;DHT22;59882;45.624;11.698;2022-09-13T02:47:23;20.70;69.50
66928;DHT22;59882;45.624;11.698;2022-09-13T02:55:50;20.70;69.10
66928;DHT22;59882;45.624;11.698;2022-09-13T02:58:27;20.70;68.80
66928;DHT22;59882;45.624;11.698;2022-09-13T03:00:55;20.70;69.20
66928;DHT22;59882;45.624;11.698;2022-09-13T03:03:21;20.70;69.00
66928;DHT22;59882;45.624;11.698;2022-09-13T03:05:48;20.70;69.20
66928;DHT22;59882;45.624;11.698;2022-09-13T03:08:14;20.70;69.20
66928;DHT22;59882;45.624;11.698;2022-09-13T03:10:50;20.70;69.10
66928;DHT22;59882;45.624;11.698;2022-09-13T03:13:44;20.60;69.20
66928;DHT22;59882;45.624;11.698;2022-09-13T03:19:10;20.50;69.10
66928;DHT22;59882;45.624;11.698;2022-09-13T03:27:51;20.40;70.00
66928;DHT22;59882;45.624;11.698;2022-09-13T03:30:18;20.40;70.00
66928;DHT22;59882;45.624;11.698;2022-09-13T03:39:15;20.30;69.60
66928;DHT22;59882;45.624;11.698;2022-09-13T03:41:15;20.30;69.90
66928;DHT22;59882;45.624;11.698;2022-09-13T03:46:27;20.30;70.00
66928;DHT22;59882;45.624;11.698;2022-09-13T03:48:56;20.30;69.90
66928;DHT22;59882;45.624;11.698;2022-09-13T03:51:22;20.30;70.10
66928;DHT22;59882;45.624;11.698;2022-09-13T03:53:54;20.30;70.30
66928;DHT22;59882;45.624;11.698;2022-09-13T03:56:21;20.20;70.20
66928;DHT22;59882;45.624;11.698;2022-09-13T03:58:49;20.20;70.10
66928;DHT22;59882;45.624;11.698;2022-09-13T04:01:20;20.10;70.20
66928;DHT22;59882;45.624;11.698;2022-09-13T04:03:46;20.10;70.40
66928;DHT22;59882;45.624;11.698;2022-09-13T04:06:12;20.10;70.80
66928;DHT22;59882;45.624;11.698;2022-09-13T04:08:38;20.10;70.70
66928;DHT22;59882;45.624;11.698;2022-09-13T04:11:04;20.10;71.00
66928;DHT22;59882;45.624;11.698;2022-09-13T04:13:29;20.10;70.70
66928;DHT22;59882;45.624;11.698;2022-09-13T04:18:45;20.20;71.10
66928;DHT22;59882;45.624;11.698;2022-09-13T04:21:10;20.20;70.90
66928;DHT22;59882;45.624;11.698;2022-09-13T04:23:36;20.20;71.10
66928;DHT22;59882;45.624;11.698;2022-09-13T04:26:04;20.20;71.10
66928;DHT22;59882;45.624;11.698;2022-09-13T04:28:30;20.20;71.10
66928;DHT22;59882;45.624;11.698;2022-09-13T04:30:56;20.30;71.40
66928;DHT22;59882;45.624;11.698;2022-09-13T04:33:22;20.30;71.10
66928;DHT22;59882;45.624;11.698;2022-09-13T04:35:52;20.30;71.60
66928;DHT22;59882;45.624;11.698;2022-09-13T04:38:18;20.30;71.10
66928;DHT22;59882;45.624;11.698;2022-09-13T04:40:43;20.30;71.40
66928;DHT22;59882;45.624;11.698;2022-09-13T04:43:09;20.40;71.30
66928;DHT22;59882;45.624;11.698;2022-09-13T04:45:35;20.40;71.20
66928;DHT22;59882;45.624;11.698;2022-09-13T04:48:02;20.40;70.80
66928;DHT22;59882;45.624;11.698;2022-09-13T04:50:27;20.40;71.10
66928;DHT22;59882;45.624;11.698;2022-09-13T04:52:54;20.40;71.00
66928;DHT22;59882;45.624;11.698;2022-09-13T04:55:19;20.40;71.00
66928;DHT22;59882;45.624;11.698;2022-09-13T04:57:45;20.40;71.10
66928;DHT22;59882;45.624;11.698;2022-09-13T05:00:11;20.30;71.10
66928;DHT22;59882;45.624;11.698;2022-09-13T05:02:37;20.30;71.40
66928;DHT22;59882;45.624;11.698;2022-09-13T05:05:02;20.30;71.60
66928;DHT22;59882;45.624;11.698;2022-09-13T05:07:28;20.30;71.60
66928;DHT22;59882;45.624;11.698;2022-09-13T05:09:53;20.20;71.70
66928;DHT22;59882;45.624;11.698;2022-09-13T05:12:19;20.20;71.50
66928;DHT22;59882;45.624;11.698;2022-09-13T05:14:45;20.20;72.00
66928;DHT22;59882;45.624;11.698;2022-09-13T05:17:11;20.20;71.30
66928;DHT22;59882;45.624;11.698;2022-09-13T05:19:36;20.20;71.60
66928;DHT22;59882;45.624;11.698;2022-09-13T05:22:02;20.20;71.90
66928;DHT22;59882;45.624;11.698;2022-09-13T05:24:27;20.20;71.90
66928;DHT22;59882;45.624;11.698;2022-09-13T05:26:53;20.20;72.00
66928;DHT22;59882;45.624;11.698;2022-09-13T05:29:19;20.10;72.20
66928;DHT22;59882;45.624;11.698;2022-09-13T05:31:44;20.20;72.30
66928;DHT22;59882;45.624;11.698;2022-09-13T05:34:13;20.10;72.30
66928;DHT22;59882;45.624;11.698;2022-09-13T05:36:40;20.10;72.30
66928;DHT22;59882;45.624;11.698;2022-09-13T05:39:06;20.10;72.50
66928;DHT22;59882;45.624;11.698;2022-09-13T05:41:35;20.20;72.70
66928;DHT22;59882;45.624;11.698;2022-09-13T05:44:00;20.20;72.70
66928;DHT22;59882;45.624;11.698;2022-09-13T05:46:26;20.10;73.00
66928;DHT22;59882;45.624;11.698;2022-09-13T05:48:52;20.20;72.90
66928;DHT22;59882;45.624;11.698;2022-09-13T05:51:20;20.20;73.10
66928;DHT22;59882;45.624;11.698;2022-09-13T05:53:48;20.20;72.90
66928;DHT22;59882;45.624;11.698;2022-09-13T05:56:19;20.20;73.10
66928;DHT22;59882;45.624;11.698;2022-09-13T05:58:47;20.30;73.00
66928;DHT22;59882;45.624;11.698;2022-09-13T06:01:14;20.30;72.80
66928;DHT22;59882;45.624;11.698;2022-09-13T06:03:40;20.30;72.70
66928;DHT22;59882;45.624;11.698;2022-09-13T06:06:07;20.40;72.60
66928;DHT22;59882;45.624;11.698;2022-09-13T06:08:33;20.40;72.40
66928;DHT22;59882;45.624;11.698;2022-09-13T06:11:07;20.40;72.30
66928;DHT22;59882;45.624;11.698;2022-09-13T06:13:33;20.40;72.00
66928;DHT22;59882;45.624;11.698;2022-09-13T06:16:00;20.50;72.00
66928;DHT22;59882;45.624;11.698;2022-09-13T06:18:27;20.50;71.90
66928;DHT22;59882;45.624;11.698;2022-09-13T06:21:04;20.60;72.00
66928;DHT22;59882;45.624;11.698;2022-09-13T06:23:30;20.60;71.80
66928;DHT22;59882;45.624;11.698;2022-09-13T06:26:04;20.70;71.50
66928;DHT22;59882;45.624;11.698;2022-09-13T06:28:31;20.60;71.50
66928;DHT22;59882;45.624;11.698;2022-09-13T06:33:31;20.80;71.00
66928;DHT22;59882;45.624;11.698;2022-09-13T06:36:02;20.80;71.10
66928;DHT22;59882;45.624;11.698;2022-09-13T06:38:28;20.80;71.00
66928;DHT22;59882;45.624;11.698;2022-09-13T06:41:04;20.90;70.90
66928;DHT22;59882;45.624;11.698;2022-09-13T06:43:31;20.90;70.60
66928;DHT22;59882;45.624;11.698;2022-09-13T06:48:32;21.10;70.30
66928;DHT22;59882;45.624;11.698;2022-09-13T06:51:02;21.20;69.90
66928;DHT22;59882;45.624;11.698;2022-09-13T06:53:28;21.20;70.00
66928;DHT22;59882;45.624;11.698;2022-09-13T06:56:09;21.30;69.90
66928;DHT22;59882;45.624;11.698;2022-09-13T06:58:36;21.40;70.00
66928;DHT22;59882;45.624;11.698;2022-09-13T07:03:42;21.40;69.70
66928;DHT22;59882;45.624;11.698;2022-09-13T07:06:13;21.40;69.40
66928;DHT22;59882;45.624;11.698;2022-09-13T07:08:40;21.50;69.20
66928;DHT22;59882;45.624;11.698;2022-09-13T07:11:06;21.50;69.30
66928;DHT22;59882;45.624;11.698;2022-09-13T07:13:32;21.60;69.00
66928;DHT22;59882;45.624;11.698;2022-09-13T07:16:02;21.70;68.90
66928;DHT22;59882;45.624;11.698;2022-09-13T07:18:28;21.70;68.90
66928;DHT22;59882;45.624;11.698;2022-09-13T07:21:06;21.70;68.90
66928;DHT22;59882;45.624;11.698;2022-09-13T07:23:34;21.80;68.70
66928;DHT22;59882;45.624;11.698;2022-09-13T07:26:00;21.90;68.60
66928;DHT22;59882;45.624;11.698;2022-09-13T07:28:32;21.90;68.60
66928;DHT22;59882;45.624;11.698;2022-09-13T07:31:13;21.90;68.50
66928;DHT22;59882;45.624;11.698;2022-09-13T07:33:40;21.90;68.40
66928;DHT22;59882;45.624;11.698;2022-09-13T07:36:07;22.00;68.30
66928;DHT22;59882;45.624;11.698;2022-09-13T07:38:39;22.00;68.00
66928;DHT22;59882;45.624;11.698;2022-09-13T07:41:09;22.10;67.40
66928;DHT22;59882;45.624;11.698;2022-09-13T07:43:36;22.10;67.30
66928;DHT22;59882;45.624;11.698;2022-09-13T07:46:11;22.20;67.30
66928;DHT22;59882;45.624;11.698;2022-09-13T07:48:39;22.20;67.10
66928;DHT22;59882;45.624;11.698;2022-09-13T07:51:07;22.30;67.10
66928;DHT22;59882;45.624;11.698;2022-09-13T07:53:35;22.30;66.90
66928;DHT22;59882;45.624;11.698;2022-09-13T07:56:24;22.40;67.00
66928;DHT22;59882;45.624;11.698;2022-09-13T07:58:51;22.40;66.80
66928;DHT22;59882;45.624;11.698;2022-09-13T08:01:27;22.40;66.70
66928;DHT22;59882;45.624;11.698;2022-09-13T08:03:57;22.50;66.50
66928;DHT22;59882;45.624;11.698;2022-09-13T08:06:25;22.50;66.60
66928;DHT22;59882;45.624;11.698;2022-09-13T08:08:51;22.50;66.50
66928;DHT22;59882;45.624;11.698;2022-09-13T08:11:51;22.60;66.60
66928;DHT22;59882;45.624;11.698;2022-09-13T08:14:12;22.60;66.40
66928;DHT22;59882;45.624;11.698;2022-09-13T08:16:39;22.70;66.30
66928;DHT22;59882;45.624;11.698;2022-09-13T08:19:05;22.80;66.30
66928;DHT22;59882;45.624;11.698;2022-09-13T08:21:37;22.80;66.10
66928;DHT22;59882;45.624;11.698;2022-09-13T08:24:04;22.90;65.80
66928;DHT22;59882;45.624;11.698;2022-09-13T08:26:31;22.90;65.90
66928;DHT22;59882;45.624;11.698;2022-09-13T08:29:00;22.90;65.70
66928;DHT22;59882;45.624;11.698;2022-09-13T08:31:27;22.90;65.60
66928;DHT22;59882;45.624;11.698;2022-09-13T08:33:53;23.00;65.80
66928;DHT22;59882;45.624;11.698;2022-09-13T08:36:20;23.00;65.40
66928;DHT22;59882;45.624;11.698;2022-09-13T08:38:50;23.10;65.60
66928;DHT22;59882;45.624;11.698;2022-09-13T08:41:58;23.10;65.40
66928;DHT22;59882;45.624;11.698;2022-09-13T08:44:49;23.20;65.40
66928;DHT22;59882;45.624;11.698;2022-09-13T08:47:56;23.20;65.10
66928;DHT22;59882;45.624;11.698;2022-09-13T08:50:29;23.30;64.80
66928;DHT22;59882;45.624;11.698;2022-09-13T08:53:21;23.30;65.00
66928;DHT22;59882;45.624;11.698;2022-09-13T09:07:08;23.60;63.80
66928;DHT22;59882;45.624;11.698;2022-09-13T09:09:49;23.60;64.70
66928;DHT22;59882;45.624;11.698;2022-09-13T09:12:25;23.60;64.40
66928;DHT22;59882;45.624;11.698;2022-09-13T09:15:13;23.70;64.00
66928;DHT22;59882;45.624;11.698;2022-09-13T09:18:04;23.70;63.50
66928;DHT22;59882;45.624;11.698;2022-09-13T09:20:49;23.70;64.20
66928;DHT22;59882;45.624;11.698;2022-09-13T09:23:21;23.80;64.20
66928;DHT22;59882;45.624;11.698;2022-09-13T09:25:50;23.90;63.90
66928;DHT22;59882;45.624;11.698;2022-09-13T09:28:19;23.90;63.70
66928;DHT22;59882;45.624;11.698;2022-09-13T09:31:01;23.90;63.00
66928;DHT22;59882;45.624;11.698;2022-09-13T09:34:10;24.00;62.90
66928;DHT22;59882;45.624;11.698;2022-09-13T09:37:15;24.00;63.40
66928;DHT22;59882;45.624;11.698;2022-09-13T09:39:43;24.00;62.70
66928;DHT22;59882;45.624;11.698;2022-09-13T09:42:20;24.10;62.80
66928;DHT22;59882;45.624;11.698;2022-09-13T09:44:53;24.10;63.50
66928;DHT22;59882;45.624;11.698;2022-09-13T09:47:26;24.20;62.60
66928;DHT22;59882;45.624;11.698;2022-09-13T09:52:44;24.20;59.70
66928;DHT22;59882;45.624;11.698;2022-09-13T09:55:16;24.30;58.60
66928;DHT22;59882;45.624;11.698;2022-09-13T09:57:49;24.30;59.00
66928;DHT22;59882;45.624;11.698;2022-09-13T10:00:16;24.40;58.50
66928;DHT22;59882;45.624;11.698;2022-09-13T10:02:43;24.40;56.00
66928;DHT22;59882;45.624;11.698;2022-09-13T10:05:09;24.40;57.80
66928;DHT22;59882;45.624;11.698;2022-09-13T10:07:37;24.50;59.60
66928;DHT22;59882;45.624;11.698;2022-09-13T10:10:33;24.50;60.00
66928;DHT22;59882;45.624;11.698;2022-09-13T10:13:02;24.60;59.50
66928;DHT22;59882;45.624;11.698;2022-09-13T10:15:30;24.70;59.50
66928;DHT22;59882;45.624;11.698;2022-09-13T10:18:13;24.70;59.10
66928;DHT22;59882;45.624;11.698;2022-09-13T10:20:41;24.80;60.00
66928;DHT22;59882;45.624;11.698;2022-09-13T10:23:10;24.90;60.20
66928;DHT22;59882;45.624;11.698;2022-09-13T10:25:37;25.00;57.10
66928;DHT22;59882;45.624;11.698;2022-09-13T10:28:04;25.10;56.40
66928;DHT22;59882;45.624;11.698;2022-09-13T10:32:59;25.10;57.70
66928;DHT22;59882;45.624;11.698;2022-09-13T10:35:26;25.20;58.00
66928;DHT22;59882;45.624;11.698;2022-09-13T10:37:53;25.30;56.60
66928;DHT22;59882;45.624;11.698;2022-09-13T10:40:26;25.30;56.30
66928;DHT22;59882;45.624;11.698;2022-09-13T10:42:56;25.30;55.30
66928;DHT22;59882;45.624;11.698;2022-09-13T10:45:24;25.30;54.70
66928;DHT22;59882;45.624;11.698;2022-09-13T10:47:54;25.40;54.20
66928;DHT22;59882;45.624;11.698;2022-09-13T10:50:28;25.40;54.20
66928;DHT22;59882;45.624;11.698;2022-09-13T10:52:59;25.40;54.70
66928;DHT22;59882;45.624;11.698;2022-09-13T10:55:52;25.50;55.60
66928;DHT22;59882;45.624;11.698;2022-09-13T10:58:18;25.50;55.80
66928;DHT22;59882;45.624;11.698;2022-09-13T11:03:53;25.70;56.40
66928;DHT22;59882;45.624;11.698;2022-09-13T11:14:52;26.10;56.30
66928;DHT22;59882;45.624;11.698;2022-09-13T11:29:08;26.50;54.60
66928;DHT22;59882;45.624;11.698;2022-09-13T11:45:27;26.80;51.90
66928;DHT22;59882;45.624;11.698;2022-09-13T11:51:17;26.90;53.70
66928;DHT22;59882;45.624;11.698;2022-09-13T11:53:59;27.10;53.70
66928;DHT22;59882;45.624;11.698;2022-09-13T11:56:35;27.20;51.30
66928;DHT22;59882;45.624;11.698;2022-09-13T12:01:50;27.40;51.20
66928;DHT22;59882;45.624;11.698;2022-09-13T12:05:00;27.50;51.60
66928;DHT22;59882;45.624;11.698;2022-09-13T12:07:29;27.60;51.70
66928;DHT22;59882;45.624;11.698;2022-09-13T12:10:06;27.70;49.40
66928;DHT22;59882;45.624;11.698;2022-09-13T12:12:38;27.80;50.30
66928;DHT22;59882;45.624;11.698;2022-09-13T12:15:41;27.90;50.90
66928;DHT22;59882;45.624;11.698;2022-09-13T12:18:24;28.10;48.80
66928;DHT22;59882;45.624;11.698;2022-09-13T12:21:24;28.30;49.80
66928;DHT22;59882;45.624;11.698;2022-09-13T12:29:35;28.90;47.40
66928;DHT22;59882;45.624;11.698;2022-09-13T12:32:07;29.10;45.90
66928;DHT22;59882;45.624;11.698;2022-09-13T12:43:04;32.90;42.50
66928;DHT22;59882;45.624;11.698;2022-09-13T13:01:29;41.20;27.90
66928;DHT22;59882;45.624;11.698;2022-09-13T13:04:32;42.00;28.10
66928;DHT22;59882;45.624;11.698;2022-09-13T13:07:15;42.50;27.20
66928;DHT22;59882;45.624;11.698;2022-09-13T13:09:51;43.10;25.50
66928;DHT22;59882;45.624;11.698;2022-09-13T13:12:34;43.60;24.60
66928;DHT22;59882;45.624;11.698;2022-09-13T13:17:52;44.20;24.80
66928;DHT22;59882;45.624;11.698;2022-09-13T13:25:58;44.70;23.70
66928;DHT22;59882;45.624;11.698;2022-09-13T13:33:49;44.70;23.70
66928;DHT22;59882;45.624;11.698;2022-09-13T13:36:26;44.70;23.40
66928;DHT22;59882;45.624;11.698;2022-09-13T13:38:56;44.70;23.70
66928;DHT22;59882;45.624;11.698;2022-09-13T13:46:45;44.50;23.30
66928;DHT22;59882;45.624;11.698;2022-09-13T14:00:27;43.60;24.10
66928;DHT22;59882;45.624;11.698;2022-09-13T14:03:32;43.50;25.20
66928;DHT22;59882;45.624;11.698;2022-09-13T14:12:16;43.00;24.40
66928;DHT22;59882;45.624;11.698;2022-09-13T14:15:48;42.90;26.00
66928;DHT22;59882;45.624;11.698;2022-09-13T14:18:06;42.80;25.90
66928;DHT22;59882;45.624;11.698;2022-09-13T14:20:35;42.80;25.30
66928;DHT22;59882;45.624;11.698;2022-09-13T14:23:32;42.70;25.40
66928;DHT22;59882;45.624;11.698;2022-09-13T14:25:59;42.60;25.70
66928;DHT22;59882;45.624;11.698;2022-09-13T14:28:26;42.70;25.10
66928;DHT22;59882;45.624;11.698;2022-09-13T14:30:55;42.80;24.50
66928;DHT22;59882;45.624;11.698;2022-09-13T14:33:31;42.60;24.40
66928;DHT22;59882;45.624;11.698;2022-09-13T14:36:12;42.40;25.20
66928;DHT22;59882;45.624;11.698;2022-09-13T14:38:49;42.20;25.50
66928;DHT22;59882;45.624;11.698;2022-09-13T14:41:18;41.90;25.70
66928;DHT22;59882;45.624;11.698;2022-09-13T14:43:46;41.60;26.20
66928;DHT22;59882;45.624;11.698;2022-09-13T14:46:25;41.30;26.60
66928;DHT22;59882;45.624;11.698;2022-09-13T14:48:56;41.10;26.90
66928;DHT22;59882;45.624;11.698;2022-09-13T14:51:27;40.80;27.10
66928;DHT22;59882;45.624;11.698;2022-09-13T14:53:59;40.50;27.00
66928;DHT22;59882;45.624;11.698;2022-09-13T14:56:52;40.40;27.80
66928;DHT22;59882;45.624;11.698;2022-09-13T14:59:29;40.50;27.40
66928;DHT22;59882;45.624;11.698;2022-09-13T15:01:57;40.60;27.80
66928;DHT22;59882;45.624;11.698;2022-09-13T15:04:23;40.80;26.50
66928;DHT22;59882;45.624;11.698;2022-09-13T15:07:07;40.90;26.80
66928;DHT22;59882;45.624;11.698;2022-09-13T15:09:33;40.70;27.30
66928;DHT22;59882;45.624;11.698;2022-09-13T15:12:00;40.50;26.90
66928;DHT22;59882;45.624;11.698;2022-09-13T15:14:34;40.40;27.30
66928;DHT22;59882;45.624;11.698;2022-09-13T15:17:11;40.10;27.60
66928;DHT22;59882;45.624;11.698;2022-09-13T15:19:43;39.90;28.20
66928;DHT22;59882;45.624;11.698;2022-09-13T15:22:16;39.90;28.50
66928;DHT22;59882;45.624;11.698;2022-09-13T15:24:54;39.90;28.50
66928;DHT22;59882;45.624;11.698;2022-09-13T15:27:27;39.80;28.10
66928;DHT22;59882;45.624;11.698;2022-09-13T15:29:56;39.60;28.30
66928;DHT22;59882;45.624;11.698;2022-09-13T15:32:30;39.40;29.10
66928;DHT22;59882;45.624;11.698;2022-09-13T15:34:58;39.30;29.50
66928;DHT22;59882;45.624;11.698;2022-09-13T15:37:33;39.10;28.70
66928;DHT22;59882;45.624;11.698;2022-09-13T15:40:19;38.90;29.30
66928;DHT22;59882;45.624;11.698;2022-09-13T15:42:49;38.50;29.90
66928;DHT22;59882;45.624;11.698;2022-09-13T15:45:16;38.30;30.20
66928;DHT22;59882;45.624;11.698;2022-09-13T15:47:47;38.10;30.30
66928;DHT22;59882;45.624;11.698;2022-09-13T15:50:27;37.80;30.50
66928;DHT22;59882;45.624;11.698;2022-09-13T15:52:56;37.50;31.10
66928;DHT22;59882;45.624;11.698;2022-09-13T15:55:23;37.50;31.60
66928;DHT22;59882;45.624;11.698;2022-09-13T15:57:49;37.40;31.40
66928;DHT22;59882;45.624;11.698;2022-09-13T16:00:24;37.40;31.20
66928;DHT22;59882;45.624;11.698;2022-09-13T16:02:51;37.40;31.80
66928;DHT22;59882;45.624;11.698;2022-09-13T16:05:17;37.20;33.30
66928;DHT22;59882;45.624;11.698;2022-09-13T16:07:43;37.10;34.80
66928;DHT22;59882;45.624;11.698;2022-09-13T16:10:15;37.00;35.30
66928;DHT22;59882;45.624;11.698;2022-09-13T16:12:41;36.90;35.00
66928;DHT22;59882;45.624;11.698;2022-09-13T16:15:07;36.70;35.70
66928;DHT22;59882;45.624;11.698;2022-09-13T16:17:33;36.50;35.90
66928;DHT22;59882;45.624;11.698;2022-09-13T16:19:59;36.50;36.40
66928;DHT22;59882;45.624;11.698;2022-09-13T16:22:25;36.20;36.40
66928;DHT22;59882;45.624;11.698;2022-09-13T16:24:50;36.00;36.90
66928;DHT22;59882;45.624;11.698;2022-09-13T16:27:17;35.70;37.00
66928;DHT22;59882;45.624;11.698;2022-09-13T16:29:43;35.50;37.20
66928;DHT22;59882;45.624;11.698;2022-09-13T16:32:09;35.30;37.50
66928;DHT22;59882;45.624;11.698;2022-09-13T16:34:35;35.00;37.80
66928;DHT22;59882;45.624;11.698;2022-09-13T16:37:01;34.70;38.00
66928;DHT22;59882;45.624;11.698;2022-09-13T16:39:27;34.50;38.80
66928;DHT22;59882;45.624;11.698;2022-09-13T16:41:53;34.20;39.10
66928;DHT22;59882;45.624;11.698;2022-09-13T16:44:19;33.90;39.60
66928;DHT22;59882;45.624;11.698;2022-09-13T16:46:45;33.50;40.50
66928;DHT22;59882;45.624;11.698;2022-09-13T16:49:10;33.20;40.90
66928;DHT22;59882;45.624;11.698;2022-09-13T16:51:36;32.90;40.80
66928;DHT22;59882;45.624;11.698;2022-09-13T16:54:02;32.60;42.40
66928;DHT22;59882;45.624;11.698;2022-09-13T16:56:28;32.40;42.00
66928;DHT22;59882;45.624;11.698;2022-09-13T16:58:55;32.20;42.30
66928;DHT22;59882;45.624;11.698;2022-09-13T17:01:26;31.90;43.20
66928;DHT22;59882;45.624;11.698;2022-09-13T17:03:52;31.70;44.00
66928;DHT22;59882;45.624;11.698;2022-09-13T17:06:20;31.50;44.40
66928;DHT22;59882;45.624;11.698;2022-09-13T17:08:51;31.30;44.90
66928;DHT22;59882;45.624;11.698;2022-09-13T17:11:19;31.00;45.60
66928;DHT22;59882;45.624;11.698;2022-09-13T17:13:45;30.80;46.00
66928;DHT22;59882;45.624;11.698;2022-09-13T17:16:38;30.70;46.50
66928;DHT22;59882;45.624;11.698;2022-09-13T17:19:07;30.40;46.40
66928;DHT22;59882;45.624;11.698;2022-09-13T17:21:34;30.30;47.20
66928;DHT22;59882;45.624;11.698;2022-09-13T17:24:00;30.20;47.90
66928;DHT22;59882;45.624;11.698;2022-09-13T17:26:26;30.00;48.40
66928;DHT22;59882;45.624;11.698;2022-09-13T17:28:51;29.90;48.70
66928;DHT22;59882;45.624;11.698;2022-09-13T17:31:18;29.70;48.70
66928;DHT22;59882;45.624;11.698;2022-09-13T17:33:44;29.60;49.40
66928;DHT22;59882;45.624;11.698;2022-09-13T17:36:11;29.40;50.20
66928;DHT22;59882;45.624;11.698;2022-09-13T17:38:38;29.30;50.60
66928;DHT22;59882;45.624;11.698;2022-09-13T17:41:11;29.20;50.80
66928;DHT22;59882;45.624;11.698;2022-09-13T17:43:38;29.00;51.20
66928;DHT22;59882;45.624;11.698;2022-09-13T17:46:10;28.90;51.60
66928;DHT22;59882;45.624;11.698;2022-09-13T17:48:36;28.80;51.80
66928;DHT22;59882;45.624;11.698;2022-09-13T17:51:26;28.70;51.90
66928;DHT22;59882;45.624;11.698;2022-09-13T17:53:57;28.70;52.90
66928;DHT22;59882;45.624;11.698;2022-09-13T17:56:37;28.50;53.60
66928;DHT22;59882;45.624;11.698;2022-09-13T17:59:12;28.50;53.90
66928;DHT22;59882;45.624;11.698;2022-09-13T18:01:40;28.40;53.70
66928;DHT22;59882;45.624;11.698;2022-09-13T18:04:07;28.30;53.60
66928;DHT22;59882;45.624;11.698;2022-09-13T18:06:35;28.20;54.40
66928;DHT22;59882;45.624;11.698;2022-09-13T18:09:01;28.20;53.90
66928;DHT22;59882;45.624;11.698;2022-09-13T18:11:26;28.10;54.70
66928;DHT22;59882;45.624;11.698;2022-09-13T18:13:52;28.10;55.00
66928;DHT22;59882;45.624;11.698;2022-09-13T18:16:20;28.00;54.70
66928;DHT22;59882;45.624;11.698;2022-09-13T18:18:46;27.90;54.80
66928;DHT22;59882;45.624;11.698;2022-09-13T18:21:13;27.90;55.50
66928;DHT22;59882;45.624;11.698;2022-09-13T18:23:40;27.90;55.80
66928;DHT22;59882;45.624;11.698;2022-09-13T18:26:11;27.80;56.20
66928;DHT22;59882;45.624;11.698;2022-09-13T18:28:37;27.70;55.70
66928;DHT22;59882;45.624;11.698;2022-09-13T18:31:05;27.60;56.20
66928;DHT22;59882;45.624;11.698;2022-09-13T18:33:32;27.50;56.60
66928;DHT22;59882;45.624;11.698;2022-09-13T18:36:06;27.50;56.70
66928;DHT22;59882;45.624;11.698;2022-09-13T18:38:43;27.40;57.00
66928;DHT22;59882;45.624;11.698;2022-09-13T18:41:20;27.40;57.30
66928;DHT22;59882;45.624;11.698;2022-09-13T18:43:48;27.30;57.30